sensor_id;sensor_type;location;lat;lon;timestamp;P1;durP1;ratioP1;P2;durP2;ratioP2
2652;SDS011;1336;48.692;9.144;2023-06-22T05:00:49;11.03;;;9.93;;
2652;SDS011;1336;48.692;9.144;2023-06-22T05:01:46;10.70;;;9.70;;
2652;SDS011;1336;48.692;9.144;2023-06-22T05:02:37;15.07;;;10.67;;
2652;SDS011;1336;48.692;9.144;2023-06-22T05:03:30;12.85;;;9.80;;
2652;SDS011;1336;48.692;9.144;2023-06-22T05:04:21;13.00;;;10.10;;
2652;SDS011;1336;48.692;9.144;2023-06-22T05:05:13;11.32;;;9.73;;
2652;SDS011;1336;48.692;9.144;2023-06-22T05:06:05;12.10;;;10.13;;
2652;SDS011;1336;48.692;9.144;2023-06-22T05:06:56;12.33;;;9.50;;
2652;SDS011;1336;48.692;9.144;2023-06-22T05:07:49;12.50;;;9.32;;
2652;SDS011;1336;48.692;9.144;2023-06-22T05:08:42;10.88;;;9.80;;
2652;SDS011;1336;48.692;9.144;2023-06-22T05:09:34;10.32;;;9.23;;
2652;SDS011;1336;48.692;9.144;2023-06-22T05:10:25;12.03;;;10.00;;
2652;SDS011;1336;48.692;9.144;2023-06-22T05:11:17;10.38;;;8.85;;
2652;SDS011;1336;48.692;9.144;2023-06-22T05:12:08;14.10;;;9.10;;
2652;SDS011;1336;48.692;9.144;2023-06-22T05:13:00;10.20;;;9.20;;
2652;SDS011;1336;48.692;9.144;2023-06-22T05:13:50;11.80;;;9.87;;
2652;SDS011;1336;48.692;9.144;2023-06-22T05:14:42;11.98;;;9.30;;
2652;SDS011;1336;48.692;9.144;2023-06-22T05:15:33;10.70;;;9.70;;
2652;SDS011;1336;48.692;9.144;2023-06-22T05:16:30;10.20;;;9.20;;
2652;SDS011;1336;48.692;9.144;2023-06-22T05:17:20;9.70;;;8.80;;
2652;SDS011;1336;48.692;9.144;2023-06-22T05:18:12;10.63;;;9.52;;
2652;SDS011;1336;48.692;9.144;2023-06-22T05:19:03;9.13;;;8.23;;
2652;SDS011;1336;48.692;9.144;2023-06-22T05:19:55;10.05;;;9.05;;
2652;SDS011;1336;48.692;9.144;2023-06-22T05:20:46;10.43;;;9.00;;
2652;SDS011;1336;48.692;9.144;2023-06-22T05:21:37;11.07;;;9.02;;
2652;SDS011;1336;48.692;9.144;2023-06-22T05:22:29;10.52;;;9.52;;
2652;SDS011;1336;48.692;9.144;2023-06-22T05:23:20;10.32;;;9.35;;
2652;SDS011;1336;48.692;9.144;2023-06-22T05:24:11;11.03;;;9.90;;
2652;SDS011;1336;48.692;9.144;2023-06-22T05:25:03;11.32;;;8.82;;
2652;SDS011;1336;48.692;9.144;2023-06-22T05:25:56;33.63;;;10.80;;
2652;SDS011;1336;48.692;9.144;2023-06-22T05:26:47;26.60;;;11.20;;
2652;SDS011;1336;48.692;9.144;2023-06-22T05:27:38;13.23;;;9.77;;
2652;SDS011;1336;48.692;9.144;2023-06-22T05:28:30;9.98;;;9.15;;
2652;SDS011;1336;48.692;9.144;2023-06-22T05:29:21;15.20;;;8.60;;
2652;SDS011;1336;48.692;9.144;2023-06-22T05:30:13;10.60;;;8.95;;
2652;SDS011;1336;48.692;9.144;2023-06-22T05:31:04;12.80;;;9.20;;
2652;SDS011;1336;48.692;9.144;2023-06-22T05:31:57;14.63;;;9.10;;
2652;SDS011;1336;48.692;9.144;2023-06-22T05:32:47;20.92;;;8.85;;
2652;SDS011;1336;48.692;9.144;2023-06-22T05:33:39;14.55;;;9.73;;
2652;SDS011;1336;48.692;9.144;2023-06-22T05:34:30;12.85;;;7.97;;
2652;SDS011;1336;48.692;9.144;2023-06-22T05:35:22;35.75;;;10.52;;
2652;SDS011;1336;48.692;9.144;2023-06-22T05:36:12;31.53;;;9.80;;
2652;SDS011;1336;48.692;9.144;2023-06-22T05:37:05;17.48;;;9.00;;
2652;SDS011;1336;48.692;9.144;2023-06-22T05:37:56;16.00;;;10.50;;
2652;SDS011;1336;48.692;9.144;2023-06-22T05:38:48;21.63;;;8.90;;
2652;SDS011;1336;48.692;9.144;2023-06-22T05:39:38;15.47;;;8.27;;
2652;SDS011;1336;48.692;9.144;2023-06-22T05:40:30;16.35;;;8.85;;
2652;SDS011;1336;48.692;9.144;2023-06-22T05:41:21;13.73;;;8.27;;
2652;SDS011;1336;48.692;9.144;2023-06-22T05:42:12;18.35;;;9.00;;
2652;SDS011;1336;48.692;9.144;2023-06-22T05:43:03;16.33;;;8.70;;
2652;SDS011;1336;48.692;9.144;2023-06-22T05:43:55;12.88;;;7.75;;
2652;SDS011;1336;48.692;9.144;2023-06-22T05:44:45;18.57;;;9.20;;
2652;SDS011;1336;48.692;9.144;2023-06-22T05:45:37;8.80;;;7.90;;
2652;SDS011;1336;48.692;9.144;2023-06-22T05:46:28;10.70;;;8.40;;
2652;SDS011;1336;48.692;9.144;2023-06-22T05:47:21;11.98;;;8.70;;
2652;SDS011;1336;48.692;9.144;2023-06-22T05:48:13;10.75;;;7.97;;
2652;SDS011;1336;48.692;9.144;2023-06-22T05:49:04;12.63;;;8.77;;
2652;SDS011;1336;48.692;9.144;2023-06-22T05:49:55;11.43;;;7.97;;
2652;SDS011;1336;48.692;9.144;2023-06-22T05:50:48;9.00;;;7.30;;
2652;SDS011;1336;48.692;9.144;2023-06-22T05:51:39;10.77;;;6.70;;
2652;SDS011;1336;48.692;9.144;2023-06-22T05:52:31;9.93;;;7.90;;
2652;SDS011;1336;48.692;9.144;2023-06-22T05:53:22;17.23;;;8.30;;
2652;SDS011;1336;48.692;9.144;2023-06-22T05:54:13;13.98;;;8.38;;
2652;SDS011;1336;48.692;9.144;2023-06-22T05:55:08;11.90;;;7.85;;
2652;SDS011;1336;48.692;9.144;2023-06-22T05:56:00;9.68;;;7.82;;
2652;SDS011;1336;48.692;9.144;2023-06-22T05:56:50;13.37;;;8.53;;
2652;SDS011;1336;48.692;9.144;2023-06-22T05:57:42;9.60;;;7.55;;
2652;SDS011;1336;48.692;9.144;2023-06-22T05:58:33;13.37;;;7.77;;
2652;SDS011;1336;48.692;9.144;2023-06-22T05:59:26;12.10;;;8.05;;
2652;SDS011;1336;48.692;9.144;2023-06-22T06:00:17;11.33;;;8.00;;
2652;SDS011;1336;48.692;9.144;2023-06-22T06:01:09;16.58;;;7.88;;
2652;SDS011;1336;48.692;9.144;2023-06-22T06:02:00;11.93;;;8.03;;
2652;SDS011;1336;48.692;9.144;2023-06-22T06:02:53;22.55;;;9.02;;
2652;SDS011;1336;48.692;9.144;2023-06-22T06:03:43;23.88;;;7.80;;
2652;SDS011;1336;48.692;9.144;2023-06-22T06:04:35;19.88;;;8.80;;
2652;SDS011;1336;48.692;9.144;2023-06-22T06:05:26;9.87;;;7.30;;
2652;SDS011;1336;48.692;9.144;2023-06-22T06:06:18;38.88;;;10.75;;
2652;SDS011;1336;48.692;9.144;2023-06-22T06:07:11;27.38;;;10.38;;
2652;SDS011;1336;48.692;9.144;2023-06-22T06:08:03;36.83;;;10.95;;
2652;SDS011;1336;48.692;9.144;2023-06-22T06:08:55;155.68;;;26.13;;
2652;SDS011;1336;48.692;9.144;2023-06-22T06:09:47;192.27;;;27.98;;
2652;SDS011;1336;48.692;9.144;2023-06-22T06:10:38;211.10;;;29.75;;
2652;SDS011;1336;48.692;9.144;2023-06-22T06:11:30;171.32;;;25.30;;
2652;SDS011;1336;48.692;9.144;2023-06-22T06:12:21;230.48;;;32.70;;
2652;SDS011;1336;48.692;9.144;2023-06-22T06:13:13;221.88;;;31.92;;
2652;SDS011;1336;48.692;9.144;2023-06-22T06:14:03;167.03;;;25.97;;
2652;SDS011;1336;48.692;9.144;2023-06-22T06:14:55;67.68;;;16.67;;
2652;SDS011;1336;48.692;9.144;2023-06-22T06:15:46;83.47;;;16.00;;
2652;SDS011;1336;48.692;9.144;2023-06-22T06:16:38;102.75;;;18.20;;
2652;SDS011;1336;48.692;9.144;2023-06-22T06:17:29;134.77;;;25.10;;
2652;SDS011;1336;48.692;9.144;2023-06-22T06:18:22;47.30;;;13.13;;
2652;SDS011;1336;48.692;9.144;2023-06-22T06:19:14;104.55;;;20.77;;
2652;SDS011;1336;48.692;9.144;2023-06-22T06:20:05;109.60;;;22.93;;
2652;SDS011;1336;48.692;9.144;2023-06-22T06:20:59;66.65;;;16.23;;
2652;SDS011;1336;48.692;9.144;2023-06-22T06:21:49;219.80;;;35.00;;
2652;SDS011;1336;48.692;9.144;2023-06-22T06:22:41;94.63;;;20.42;;
2652;SDS011;1336;48.692;9.144;2023-06-22T06:23:32;151.82;;;28.17;;
2652;SDS011;1336;48.692;9.144;2023-06-22T06:24:24;122.07;;;23.48;;
2652;SDS011;1336;48.692;9.144;2023-06-22T06:25:15;80.70;;;18.00;;
2652;SDS011;1336;48.692;9.144;2023-06-22T06:26:08;35.92;;;11.60;;
2652;SDS011;1336;48.692;9.144;2023-06-22T06:26:59;149.27;;;25.10;;
2652;SDS011;1336;48.692;9.144;2023-06-22T06:27:54;110.28;;;22.60;;
2652;SDS011;1336;48.692;9.144;2023-06-22T06:28:45;69.10;;;13.20;;
2652;SDS011;1336;48.692;9.144;2023-06-22T06:29:37;39.58;;;11.65;;
2652;SDS011;1336;48.692;9.144;2023-06-22T06:30:28;57.77;;;13.00;;
2652;SDS011;1336;48.692;9.144;2023-06-22T06:31:19;48.58;;;14.25;;
2652;SDS011;1336;48.692;9.144;2023-06-22T06:32:10;51.57;;;15.17;;
2652;SDS011;1336;48.692;9.144;2023-06-22T06:33:02;28.50;;;10.27;;
2652;SDS011;1336;48.692;9.144;2023-06-22T06:33:56;64.20;;;16.33;;
2652;SDS011;1336;48.692;9.144;2023-06-22T06:34:47;61.90;;;13.93;;
2652;SDS011;1336;48.692;9.144;2023-06-22T06:35:38;41.90;;;11.83;;
2652;SDS011;1336;48.692;9.144;2023-06-22T06:36:30;43.67;;;13.25;;
2652;SDS011;1336;48.692;9.144;2023-06-22T06:37:21;55.22;;;13.75;;
2652;SDS011;1336;48.692;9.144;2023-06-22T06:38:13;37.05;;;11.00;;
2652;SDS011;1336;48.692;9.144;2023-06-22T06:39:03;49.77;;;12.97;;
2652;SDS011;1336;48.692;9.144;2023-06-22T06:39:55;28.00;;;9.45;;
2652;SDS011;1336;48.692;9.144;2023-06-22T06:40:46;14.13;;;8.13;;
2652;SDS011;1336;48.692;9.144;2023-06-22T06:41:39;12.05;;;7.78;;
2652;SDS011;1336;48.692;9.144;2023-06-22T06:42:29;23.33;;;9.33;;
2652;SDS011;1336;48.692;9.144;2023-06-22T06:43:21;31.33;;;10.77;;
2652;SDS011;1336;48.692;9.144;2023-06-22T06:44:12;28.17;;;11.90;;
2652;SDS011;1336;48.692;9.144;2023-06-22T06:45:05;14.98;;;8.63;;
2652;SDS011;1336;48.692;9.144;2023-06-22T06:45:56;26.38;;;10.60;;
2652;SDS011;1336;48.692;9.144;2023-06-22T06:46:48;17.35;;;8.98;;
2652;SDS011;1336;48.692;9.144;2023-06-22T06:47:38;12.90;;;7.40;;
2652;SDS011;1336;48.692;9.144;2023-06-22T06:48:30;17.70;;;8.40;;
2652;SDS011;1336;48.692;9.144;2023-06-22T06:49:22;11.97;;;6.97;;
2652;SDS011;1336;48.692;9.144;2023-06-22T06:50:14;12.88;;;8.45;;
2652;SDS011;1336;48.692;9.144;2023-06-22T06:51:05;11.67;;;8.43;;
2652;SDS011;1336;48.692;9.144;2023-06-22T06:51:59;14.15;;;8.52;;
2652;SDS011;1336;48.692;9.144;2023-06-22T06:52:49;10.63;;;7.97;;
2652;SDS011;1336;48.692;9.144;2023-06-22T06:53:41;12.85;;;7.50;;
2652;SDS011;1336;48.692;9.144;2023-06-22T06:54:32;13.80;;;7.50;;
2652;SDS011;1336;48.692;9.144;2023-06-22T06:55:24;12.77;;;7.55;;
2652;SDS011;1336;48.692;9.144;2023-06-22T06:56:15;10.80;;;7.05;;
2652;SDS011;1336;48.692;9.144;2023-06-22T06:57:07;19.83;;;7.55;;
2652;SDS011;1336;48.692;9.144;2023-06-22T06:58:01;12.75;;;7.30;;
2652;SDS011;1336;48.692;9.144;2023-06-22T06:58:54;10.43;;;7.40;;
2652;SDS011;1336;48.692;9.144;2023-06-22T06:59:45;9.02;;;7.25;;
2652;SDS011;1336;48.692;9.144;2023-06-22T07:00:37;13.55;;;8.07;;
2652;SDS011;1336;48.692;9.144;2023-06-22T07:01:28;14.43;;;8.40;;
2652;SDS011;1336;48.692;9.144;2023-06-22T07:02:23;24.45;;;8.30;;
2652;SDS011;1336;48.692;9.144;2023-06-22T07:03:14;13.03;;;8.67;;
2652;SDS011;1336;48.692;9.144;2023-06-22T07:04:06;22.80;;;9.10;;
2652;SDS011;1336;48.692;9.144;2023-06-22T07:04:58;15.50;;;8.00;;
2652;SDS011;1336;48.692;9.144;2023-06-22T07:05:49;11.77;;;7.68;;
2652;SDS011;1336;48.692;9.144;2023-06-22T07:06:40;15.53;;;8.20;;
2652;SDS011;1336;48.692;9.144;2023-06-22T07:07:33;13.63;;;7.60;;
2652;SDS011;1336;48.692;9.144;2023-06-22T07:08:24;10.63;;;7.27;;
2652;SDS011;1336;48.692;9.144;2023-06-22T07:09:15;17.50;;;8.07;;
2652;SDS011;1336;48.692;9.144;2023-06-22T07:10:09;15.00;;;7.35;;
2652;SDS011;1336;48.692;9.144;2023-06-22T07:11:01;13.70;;;7.78;;
2652;SDS011;1336;48.692;9.144;2023-06-22T07:11:51;11.73;;;7.30;;
2652;SDS011;1336;48.692;9.144;2023-06-22T07:12:43;7.00;;;6.30;;
2652;SDS011;1336;48.692;9.144;2023-06-22T07:13:34;12.77;;;7.00;;
2652;SDS011;1336;48.692;9.144;2023-06-22T07:14:26;11.60;;;6.65;;
2652;SDS011;1336;48.692;9.144;2023-06-22T07:15:16;10.13;;;6.47;;
2652;SDS011;1336;48.692;9.144;2023-06-22T07:16:08;13.23;;;7.85;;
2652;SDS011;1336;48.692;9.144;2023-06-22T07:16:59;12.70;;;6.90;;
2652;SDS011;1336;48.692;9.144;2023-06-22T07:17:50;10.80;;;6.50;;
2652;SDS011;1336;48.692;9.144;2023-06-22T07:18:41;11.37;;;7.77;;
2652;SDS011;1336;48.692;9.144;2023-06-22T07:19:33;11.18;;;7.35;;
2652;SDS011;1336;48.692;9.144;2023-06-22T07:20:25;11.10;;;7.00;;
2652;SDS011;1336;48.692;9.144;2023-06-22T07:21:17;9.00;;;6.97;;
2652;SDS011;1336;48.692;9.144;2023-06-22T07:22:07;9.73;;;7.30;;
2652;SDS011;1336;48.692;9.144;2023-06-22T07:22:59;15.07;;;7.30;;
2652;SDS011;1336;48.692;9.144;2023-06-22T07:23:51;12.77;;;7.37;;
2652;SDS011;1336;48.692;9.144;2023-06-22T07:24:42;14.00;;;7.27;;
2652;SDS011;1336;48.692;9.144;2023-06-22T07:25:33;19.83;;;7.50;;
2652;SDS011;1336;48.692;9.144;2023-06-22T07:26:25;12.60;;;7.30;;
2652;SDS011;1336;48.692;9.144;2023-06-22T07:27:16;10.50;;;6.87;;
2652;SDS011;1336;48.692;9.144;2023-06-22T07:28:09;9.90;;;6.97;;
2652;SDS011;1336;48.692;9.144;2023-06-22T07:29:00;8.80;;;6.60;;
2652;SDS011;1336;48.692;9.144;2023-06-22T07:29:51;8.70;;;5.60;;
2652;SDS011;1336;48.692;9.144;2023-06-22T07:30:42;6.73;;;6.03;;
2652;SDS011;1336;48.692;9.144;2023-06-22T07:31:34;9.15;;;6.43;;
2652;SDS011;1336;48.692;9.144;2023-06-22T07:32:24;8.97;;;6.43;;
2652;SDS011;1336;48.692;9.144;2023-06-22T07:33:18;9.55;;;6.57;;
2652;SDS011;1336;48.692;9.144;2023-06-22T07:34:10;7.22;;;6.38;;
2652;SDS011;1336;48.692;9.144;2023-06-22T07:35:01;11.43;;;6.27;;
2652;SDS011;1336;48.692;9.144;2023-06-22T07:35:54;9.10;;;5.73;;
2652;SDS011;1336;48.692;9.144;2023-06-22T07:36:45;9.27;;;5.80;;
2652;SDS011;1336;48.692;9.144;2023-06-22T07:37:37;6.80;;;6.10;;
2652;SDS011;1336;48.692;9.144;2023-06-22T07:38:28;8.13;;;6.33;;
2652;SDS011;1336;48.692;9.144;2023-06-22T07:39:19;9.70;;;6.27;;
2652;SDS011;1336;48.692;9.144;2023-06-22T07:40:15;10.30;;;6.73;;
2652;SDS011;1336;48.692;9.144;2023-06-22T07:41:07;9.35;;;6.10;;
2652;SDS011;1336;48.692;9.144;2023-06-22T07:41:58;8.73;;;6.40;;
2652;SDS011;1336;48.692;9.144;2023-06-22T07:42:50;8.33;;;6.90;;
2652;SDS011;1336;48.692;9.144;2023-06-22T07:43:41;9.55;;;6.30;;
2652;SDS011;1336;48.692;9.144;2023-06-22T07:44:33;9.00;;;6.50;;
2652;SDS011;1336;48.692;9.144;2023-06-22T07:45:24;9.40;;;6.50;;
2652;SDS011;1336;48.692;9.144;2023-06-22T07:46:15;7.10;;;6.33;;
2652;SDS011;1336;48.692;9.144;2023-06-22T07:47:06;9.93;;;6.43;;
2652;SDS011;1336;48.692;9.144;2023-06-22T07:47:58;9.77;;;6.83;;
2652;SDS011;1336;48.692;9.144;2023-06-22T07:48:49;8.43;;;6.37;;
2652;SDS011;1336;48.692;9.144;2023-06-22T07:49:40;13.00;;;6.97;;
2652;SDS011;1336;48.692;9.144;2023-06-22T07:50:31;9.20;;;6.00;;
2652;SDS011;1336;48.692;9.144;2023-06-22T07:51:24;9.15;;;6.50;;
2652;SDS011;1336;48.692;9.144;2023-06-22T07:52:15;9.60;;;6.50;;
2652;SDS011;1336;48.692;9.144;2023-06-22T07:53:07;10.83;;;6.87;;
2652;SDS011;1336;48.692;9.144;2023-06-22T07:53:57;8.70;;;6.47;;
2652;SDS011;1336;48.692;9.144;2023-06-22T07:54:49;11.03;;;6.13;;
2652;SDS011;1336;48.692;9.144;2023-06-22T07:55:40;7.10;;;5.80;;
2652;SDS011;1336;48.692;9.144;2023-06-22T07:56:32;6.77;;;5.90;;
2652;SDS011;1336;48.692;9.144;2023-06-22T07:57:23;8.38;;;5.97;;
2652;SDS011;1336;48.692;9.144;2023-06-22T07:58:22;8.40;;;5.90;;
2652;SDS011;1336;48.692;9.144;2023-06-22T07:59:13;6.80;;;6.00;;
2652;SDS011;1336;48.692;9.144;2023-06-22T08:00:05;8.10;;;5.83;;
2652;SDS011;1336;48.692;9.144;2023-06-22T08:01:02;6.20;;;5.60;;
2652;SDS011;1336;48.692;9.144;2023-06-22T08:01:54;11.80;;;6.67;;
2652;SDS011;1336;48.692;9.144;2023-06-22T08:02:46;12.67;;;6.20;;
2652;SDS011;1336;48.692;9.144;2023-06-22T08:03:37;6.80;;;5.70;;
2652;SDS011;1336;48.692;9.144;2023-06-22T08:04:29;6.67;;;5.97;;
2652;SDS011;1336;48.692;9.144;2023-06-22T08:05:21;9.27;;;6.00;;
2652;SDS011;1336;48.692;9.144;2023-06-22T08:06:13;10.60;;;6.83;;
2652;SDS011;1336;48.692;9.144;2023-06-22T08:07:05;6.73;;;5.93;;
2652;SDS011;1336;48.692;9.144;2023-06-22T08:07:57;8.40;;;6.40;;
2652;SDS011;1336;48.692;9.144;2023-06-22T08:08:48;10.80;;;6.80;;
2652;SDS011;1336;48.692;9.144;2023-06-22T08:09:42;8.03;;;5.97;;
2652;SDS011;1336;48.692;9.144;2023-06-22T08:10:37;9.43;;;5.87;;
2652;SDS011;1336;48.692;9.144;2023-06-22T08:11:29;11.10;;;6.40;;
2652;SDS011;1336;48.692;9.144;2023-06-22T08:12:19;12.03;;;6.57;;
2652;SDS011;1336;48.692;9.144;2023-06-22T08:13:11;7.80;;;6.17;;
2652;SDS011;1336;48.692;9.144;2023-06-22T08:14:02;7.70;;;6.60;;
2652;SDS011;1336;48.692;9.144;2023-06-22T08:14:53;7.97;;;6.13;;
2652;SDS011;1336;48.692;9.144;2023-06-22T08:15:44;7.60;;;5.70;;
2652;SDS011;1336;48.692;9.144;2023-06-22T08:16:36;6.63;;;6.00;;
2652;SDS011;1336;48.692;9.144;2023-06-22T08:17:27;7.30;;;5.80;;
2652;SDS011;1336;48.692;9.144;2023-06-22T08:18:18;7.83;;;6.93;;
2652;SDS011;1336;48.692;9.144;2023-06-22T08:19:09;11.13;;;6.60;;
2652;SDS011;1336;48.692;9.144;2023-06-22T08:20:01;9.40;;;6.93;;
2652;SDS011;1336;48.692;9.144;2023-06-22T08:20:55;7.50;;;6.20;;
2652;SDS011;1336;48.692;9.144;2023-06-22T08:21:47;8.00;;;6.37;;
2652;SDS011;1336;48.692;9.144;2023-06-22T08:22:39;13.70;;;6.37;;
2652;SDS011;1336;48.692;9.144;2023-06-22T08:23:31;8.33;;;7.37;;
2652;SDS011;1336;48.692;9.144;2023-06-22T08:24:22;7.10;;;6.40;;
2652;SDS011;1336;48.692;9.144;2023-06-22T08:25:13;8.73;;;6.65;;
2652;SDS011;1336;48.692;9.144;2023-06-22T08:26:04;7.73;;;6.60;;
2652;SDS011;1336;48.692;9.144;2023-06-22T08:26:56;7.90;;;6.30;;
2652;SDS011;1336;48.692;9.144;2023-06-22T08:27:47;9.00;;;6.53;;
2652;SDS011;1336;48.692;9.144;2023-06-22T08:28:39;11.10;;;6.37;;
2652;SDS011;1336;48.692;9.144;2023-06-22T08:29:30;10.13;;;5.40;;
2652;SDS011;1336;48.692;9.144;2023-06-22T08:30:21;9.27;;;6.70;;
2652;SDS011;1336;48.692;9.144;2023-06-22T08:31:12;10.27;;;6.50;;
2652;SDS011;1336;48.692;9.144;2023-06-22T08:32:04;9.20;;;6.07;;
2652;SDS011;1336;48.692;9.144;2023-06-22T08:32:56;7.80;;;5.87;;
2652;SDS011;1336;48.692;9.144;2023-06-22T08:33:48;7.77;;;6.30;;
2652;SDS011;1336;48.692;9.144;2023-06-22T08:34:38;10.57;;;5.93;;
2652;SDS011;1336;48.692;9.144;2023-06-22T08:35:32;7.97;;;6.63;;
2652;SDS011;1336;48.692;9.144;2023-06-22T08:36:22;9.47;;;6.30;;
2652;SDS011;1336;48.692;9.144;2023-06-22T08:37:14;7.33;;;6.20;;
2652;SDS011;1336;48.692;9.144;2023-06-22T08:38:06;8.10;;;6.23;;
2652;SDS011;1336;48.692;9.144;2023-06-22T08:38:59;8.37;;;6.80;;
2652;SDS011;1336;48.692;9.144;2023-06-22T08:39:51;8.80;;;6.80;;
2652;SDS011;1336;48.692;9.144;2023-06-22T08:40:43;10.50;;;6.57;;
2652;SDS011;1336;48.692;9.144;2023-06-22T08:41:34;11.10;;;6.17;;
2652;SDS011;1336;48.692;9.144;2023-06-22T08:42:26;6.50;;;5.90;;
2652;SDS011;1336;48.692;9.144;2023-06-22T08:43:17;7.07;;;6.30;;
2652;SDS011;1336;48.692;9.144;2023-06-22T08:44:08;9.87;;;6.87;;
2652;SDS011;1336;48.692;9.144;2023-06-22T08:44:59;8.30;;;6.43;;
2652;SDS011;1336;48.692;9.144;2023-06-22T08:45:51;7.00;;;6.20;;
2652;SDS011;1336;48.692;9.144;2023-06-22T08:46:42;10.20;;;6.73;;
2652;SDS011;1336;48.692;9.144;2023-06-22T08:47:33;8.97;;;6.47;;
2652;SDS011;1336;48.692;9.144;2023-06-22T08:48:24;8.20;;;6.73;;
2652;SDS011;1336;48.692;9.144;2023-06-22T08:49:16;9.73;;;6.37;;
2652;SDS011;1336;48.692;9.144;2023-06-22T08:50:07;8.10;;;6.63;;
2652;SDS011;1336;48.692;9.144;2023-06-22T08:50:59;10.60;;;7.00;;
2652;SDS011;1336;48.692;9.144;2023-06-22T08:51:50;6.90;;;6.03;;
2652;SDS011;1336;48.692;9.144;2023-06-22T08:52:43;9.50;;;6.57;;
2652;SDS011;1336;48.692;9.144;2023-06-22T08:53:37;7.97;;;6.53;;
2652;SDS011;1336;48.692;9.144;2023-06-22T08:54:28;7.50;;;6.60;;
2652;SDS011;1336;48.692;9.144;2023-06-22T08:55:19;7.57;;;6.27;;
2652;SDS011;1336;48.692;9.144;2023-06-22T08:56:11;6.53;;;5.93;;
2652;SDS011;1336;48.692;9.144;2023-06-22T08:57:01;10.60;;;6.50;;
2652;SDS011;1336;48.692;9.144;2023-06-22T08:57:53;9.00;;;7.27;;
2652;SDS011;1336;48.692;9.144;2023-06-22T08:58:45;7.40;;;6.63;;
2652;SDS011;1336;48.692;9.144;2023-06-22T08:59:36;9.00;;;6.80;;
2652;SDS011;1336;48.692;9.144;2023-06-22T09:00:27;7.30;;;6.40;;
2652;SDS011;1336;48.692;9.144;2023-06-22T09:01:22;8.73;;;6.63;;
2652;SDS011;1336;48.692;9.144;2023-06-22T09:02:13;9.10;;;6.63;;
2652;SDS011;1336;48.692;9.144;2023-06-22T09:03:05;9.57;;;6.37;;
2652;SDS011;1336;48.692;9.144;2023-06-22T09:03:56;9.40;;;6.87;;
2652;SDS011;1336;48.692;9.144;2023-06-22T09:04:48;11.73;;;7.00;;
2652;SDS011;1336;48.692;9.144;2023-06-22T09:05:45;7.90;;;6.20;;
2652;SDS011;1336;48.692;9.144;2023-06-22T09:06:37;8.87;;;6.73;;
2652;SDS011;1336;48.692;9.144;2023-06-22T09:07:34;7.80;;;6.50;;
2652;SDS011;1336;48.692;9.144;2023-06-22T09:08:26;9.93;;;6.77;;
2652;SDS011;1336;48.692;9.144;2023-06-22T09:09:18;7.23;;;6.03;;
2652;SDS011;1336;48.692;9.144;2023-06-22T09:10:12;8.07;;;6.40;;
2652;SDS011;1336;48.692;9.144;2023-06-22T09:11:03;9.93;;;6.80;;
2652;SDS011;1336;48.692;9.144;2023-06-22T09:11:55;9.67;;;6.90;;
2652;SDS011;1336;48.692;9.144;2023-06-22T09:12:46;10.63;;;7.37;;
2652;SDS011;1336;48.692;9.144;2023-06-22T09:13:37;9.87;;;6.87;;
2652;SDS011;1336;48.692;9.144;2023-06-22T09:14:28;9.10;;;6.70;;
2652;SDS011;1336;48.692;9.144;2023-06-22T09:15:20;8.80;;;6.70;;
2652;SDS011;1336;48.692;9.144;2023-06-22T09:16:11;10.07;;;6.53;;
2652;SDS011;1336;48.692;9.144;2023-06-22T09:17:03;9.17;;;7.13;;
2652;SDS011;1336;48.692;9.144;2023-06-22T09:17:55;8.20;;;6.57;;
2652;SDS011;1336;48.692;9.144;2023-06-22T09:18:47;10.13;;;7.20;;
2652;SDS011;1336;48.692;9.144;2023-06-22T09:19:38;8.70;;;6.40;;
2652;SDS011;1336;48.692;9.144;2023-06-22T09:20:30;8.00;;;7.20;;
2652;SDS011;1336;48.692;9.144;2023-06-22T09:21:21;14.73;;;6.90;;
2652;SDS011;1336;48.692;9.144;2023-06-22T09:22:14;7.27;;;6.63;;
2652;SDS011;1336;48.692;9.144;2023-06-22T09:23:05;10.40;;;6.80;;
2652;SDS011;1336;48.692;9.144;2023-06-22T09:23:57;8.30;;;7.07;;
2652;SDS011;1336;48.692;9.144;2023-06-22T09:24:49;10.57;;;7.53;;
2652;SDS011;1336;48.692;9.144;2023-06-22T09:25:41;10.53;;;7.37;;
2652;SDS011;1336;48.692;9.144;2023-06-22T09:26:33;9.43;;;6.40;;
2652;SDS011;1336;48.692;9.144;2023-06-22T09:27:24;8.73;;;6.20;;
2652;SDS011;1336;48.692;9.144;2023-06-22T09:28:15;11.57;;;7.10;;
2652;SDS011;1336;48.692;9.144;2023-06-22T09:29:07;7.47;;;6.67;;
2652;SDS011;1336;48.692;9.144;2023-06-22T09:29:58;9.00;;;6.10;;
2652;SDS011;1336;48.692;9.144;2023-06-22T09:30:50;8.43;;;6.30;;
2652;SDS011;1336;48.692;9.144;2023-06-22T09:31:40;6.90;;;6.20;;
2652;SDS011;1336;48.692;9.144;2023-06-22T09:32:32;13.27;;;7.00;;
2652;SDS011;1336;48.692;9.144;2023-06-22T09:33:23;7.83;;;6.77;;
2652;SDS011;1336;48.692;9.144;2023-06-22T09:34:15;9.37;;;7.30;;
2652;SDS011;1336;48.692;9.144;2023-06-22T09:35:10;8.40;;;6.57;;
2652;SDS011;1336;48.692;9.144;2023-06-22T09:36:03;10.37;;;6.73;;
2652;SDS011;1336;48.692;9.144;2023-06-22T09:36:55;9.73;;;7.33;;
2652;SDS011;1336;48.692;9.144;2023-06-22T09:37:47;8.90;;;6.90;;
2652;SDS011;1336;48.692;9.144;2023-06-22T09:38:38;9.90;;;6.57;;
2652;SDS011;1336;48.692;9.144;2023-06-22T09:39:29;10.77;;;7.07;;
2652;SDS011;1336;48.692;9.144;2023-06-22T09:40:21;13.77;;;6.83;;
2652;SDS011;1336;48.692;9.144;2023-06-22T09:41:13;8.00;;;7.20;;
2652;SDS011;1336;48.692;9.144;2023-06-22T09:42:04;12.57;;;7.40;;
2652;SDS011;1336;48.692;9.144;2023-06-22T09:42:57;7.83;;;6.90;;
2652;SDS011;1336;48.692;9.144;2023-06-22T09:43:48;7.63;;;6.70;;
2652;SDS011;1336;48.692;9.144;2023-06-22T09:44:39;15.13;;;7.40;;
2652;SDS011;1336;48.692;9.144;2023-06-22T09:45:31;11.50;;;7.20;;
2652;SDS011;1336;48.692;9.144;2023-06-22T09:46:22;11.37;;;7.40;;
2652;SDS011;1336;48.692;9.144;2023-06-22T09:47:15;7.57;;;6.83;;
2652;SDS011;1336;48.692;9.144;2023-06-22T09:48:05;10.13;;;6.90;;
2652;SDS011;1336;48.692;9.144;2023-06-22T09:48:57;10.27;;;7.07;;
2652;SDS011;1336;48.692;9.144;2023-06-22T09:49:48;9.63;;;6.60;;
2652;SDS011;1336;48.692;9.144;2023-06-22T09:50:40;9.77;;;7.37;;
2652;SDS011;1336;48.692;9.144;2023-06-22T09:51:30;12.40;;;7.20;;
2652;SDS011;1336;48.692;9.144;2023-06-22T09:52:22;9.50;;;6.53;;
2652;SDS011;1336;48.692;9.144;2023-06-22T09:53:13;7.67;;;6.67;;
2652;SDS011;1336;48.692;9.144;2023-06-22T09:54:04;9.70;;;7.47;;
2652;SDS011;1336;48.692;9.144;2023-06-22T09:54:55;11.00;;;6.93;;
2652;SDS011;1336;48.692;9.144;2023-06-22T09:55:48;8.20;;;6.63;;
2652;SDS011;1336;48.692;9.144;2023-06-22T09:56:39;8.87;;;6.80;;
2652;SDS011;1336;48.692;9.144;2023-06-22T09:57:30;7.80;;;7.00;;
2652;SDS011;1336;48.692;9.144;2023-06-22T09:58:21;9.10;;;6.50;;
2652;SDS011;1336;48.692;9.144;2023-06-22T09:59:13;8.40;;;6.63;;
2652;SDS011;1336;48.692;9.144;2023-06-22T10:00:04;10.47;;;7.60;;
2652;SDS011;1336;48.692;9.144;2023-06-22T10:01:00;9.90;;;7.27;;
2652;SDS011;1336;48.692;9.144;2023-06-22T10:01:51;10.63;;;6.23;;
2652;SDS011;1336;48.692;9.144;2023-06-22T10:02:43;9.70;;;7.30;;
2652;SDS011;1336;48.692;9.144;2023-06-22T10:03:34;12.17;;;7.10;;
2652;SDS011;1336;48.692;9.144;2023-06-22T10:04:25;10.57;;;6.70;;
2652;SDS011;1336;48.692;9.144;2023-06-22T10:05:16;10.97;;;6.93;;
2652;SDS011;1336;48.692;9.144;2023-06-22T10:06:08;12.53;;;7.37;;
2652;SDS011;1336;48.692;9.144;2023-06-22T10:06:59;10.63;;;7.37;;
2652;SDS011;1336;48.692;9.144;2023-06-22T10:07:51;10.33;;;7.30;;
2652;SDS011;1336;48.692;9.144;2023-06-22T10:08:42;12.03;;;7.70;;
2652;SDS011;1336;48.692;9.144;2023-06-22T10:09:34;9.03;;;7.10;;
2652;SDS011;1336;48.692;9.144;2023-06-22T10:10:24;10.07;;;7.73;;
2652;SDS011;1336;48.692;9.144;2023-06-22T10:11:17;13.20;;;8.43;;
2652;SDS011;1336;48.692;9.144;2023-06-22T10:12:08;9.20;;;7.40;;
2652;SDS011;1336;48.692;9.144;2023-06-22T10:13:02;8.50;;;7.23;;
2652;SDS011;1336;48.692;9.144;2023-06-22T10:14:01;9.30;;;6.20;;
2652;SDS011;1336;48.692;9.144;2023-06-22T10:14:52;9.70;;;6.93;;
2652;SDS011;1336;48.692;9.144;2023-06-22T10:15:43;11.60;;;8.40;;
2652;SDS011;1336;48.692;9.144;2023-06-22T10:16:39;12.77;;;7.50;;
2652;SDS011;1336;48.692;9.144;2023-06-22T10:17:31;10.53;;;7.03;;
2652;SDS011;1336;48.692;9.144;2023-06-22T10:18:22;9.20;;;7.80;;